x

West Moresby (46208) Wave Buoy

6:00am - Mon 28th Jul 2014 All times are PDT. -7 hours from GMT.

  • Sig Wave height 3.6ft
  • Peak Period 7s
  • Wind
    18mph, 20mph gusts
  • Sea Temp 58°f
  • Air Temp 59°f
  • Sea Pressure 1017.4mb
  • West Moresby
  • West Moresby

More Historic Weather Station data

Upgrade to MSW Pro to gain access to the past 30 days of data for over 8000 Wavebouys and Weather Stations around the globe.

Join Pro

Comparision Forecast

View Surf forecast
   
Mon 07/28 6:00am 3.5ft 7s 18 20 mph 1017.4mb 58f 59f
5:00am 3.5ft 8s 16 18 mph 1017.5mb 58f 59f
4:00am 3.5ft 7s 13 16 mph 1017.7mb 58f 59f
3:00am 3.5ft 8s 9 11 mph 1017.9mb 58f 59f
2:00am 3.5ft 7s 13 16 mph 1018.4mb 58f 59f
1:00am 3.5ft 7s 13
mph
1018.8mb 58f 59f
12:00am 3.5ft 9s 13
mph
1018.9mb 58f 59f
Sun 07/27 11:00pm 3.5ft 8s 13 16 mph 1019.2mb 58f 59f
10:00pm 3.5ft 8s 13 16 mph 1019.4mb 58f 59f
9:00pm 4ft 7s 11 13 mph 1019.4mb 58f 59f
8:00pm 4ft 6s 11 13 mph 1019.6mb 59f 59f
7:00pm 4ft 8s 13 16 mph 1019.8mb 59f 59f
6:00pm 4ft 7s 13 16 mph 1020mb 59f 59f
5:00pm 4ft 8s 11 13 mph 1020mb 58f 59f
4:00pm 3.5ft 8s 16 18 mph 1019.9mb 58f 58f
3:00pm 3.5ft 8s 13 18 mph 1019.8mb 58f 59f
2:00pm 3.5ft 6s 11 13 mph 1019.7mb 58f 59f
1:00pm 4ft 8s 11 13 mph 1019.6mb 58f 59f
12:00pm 4ft 8s 13 18 mph 1019.5mb 58f 59f
11:00am 4.5ft 6s 11 13 mph 1019.3mb 58f 59f
10:00am 4.5ft 6s 11 13 mph 1019.2mb 58f 58f
9:00am 4.5ft 7s 11 13 mph 1018.9mb 58f 58f
8:00am 4.5ft 8s 13 16 mph 1018.7mb 58f 58f
7:00am 4.5ft 8s 11 13 mph 1018.6mb 58f 58f
6:00am 4.5ft 8s 9 11 mph 1018.3mb 58f 58f
5:00am 4.5ft 8s 11
mph
1018.1mb 58f 58f
4:00am 4.5ft 6s 11
mph
1018mb 58f 58f
3:00am 4ft 6s 11 13 mph 1017.8mb 58f 58f
2:00am 4.5ft 5s 11 13 mph 1017.8mb 58f 58f
1:00am 4.5ft 6s 11 13 mph 1017.8mb 58f 58f
12:00am 4.5ft 8s 9 11 mph 1017.9mb 58f 58f
Sat 07/26 11:00pm 5ft 6s 13
mph
1017.7mb 58f 58f
10:00pm 5ft 5s 13 16 mph 1017.4mb 58f 58f
9:00pm 5ft 6s 11 13 mph 1016.9mb 58f 58f
8:00pm 5ft 6s 11 16 mph 1016.8mb 58f 58f
7:00pm 5ft 5s 13 16 mph 1016.9mb 58f 58f
6:00pm 5ft 6s 16 18 mph 1016.8mb 58f 57f
5:00pm 5ft 5s 13 18 mph 1016.7mb 58f 58f
4:00pm 5ft 8s 16 18 mph 1016.4mb 58f 58f
3:00pm 5ft 8s 13 16 mph 1016.1mb 58f 57f
2:00pm 5ft 8s 16 18 mph 1015.4mb 58f 58f
1:00pm 5ft 8s 18 20 mph 1015mb 58f 58f
12:00pm 5.5ft 6s 20 25 mph 1014.8mb 58f 58f
11:00am 5ft 7s 18 20 mph 1014.7mb 58f 58f
10:00am 5.5ft 5s 18 20 mph 1014.5mb 58f 58f
9:00am 6ft 8s 16 20 mph 1014.3mb 58f 57f
8:00am 6ft 7s 13 18 mph 1014.1mb 58f 57f
7:00am 6ft 6s 18 22 mph 1013.9mb 58f 58f
6:00am 5.5ft 7s 18 22 mph 1013.8mb 58f 58f
5:00am 5.5ft 7s 16 18 mph 1013.9mb 58f 58f
4:00am 6ft 8s 16 18 mph 1014mb 58f 57f
3:00am 5.5ft 7s 18 20 mph 1014mb 58f 57f
2:00am 5ft 8s 18 20 mph 1014.1mb 58f 57f
1:00am 5ft 8s 18 20 mph 1014.4mb 58f 57f
12:00am 5.5ft 8s 18 20 mph 1014.6mb 58f 58f
Fri 07/25 11:00pm 5ft 7s 20 22 mph 1014.9mb 58f 57f
10:00pm 5ft 7s 18 20 mph 1015mb 58f 58f
9:00pm 5ft 8s 18 20 mph 1015mb 59f 58f
8:00pm 5ft 7s 18 22 mph 1015.1mb 59f 58f
7:00pm 5ft 8s 16 18 mph 1015.4mb 59f 58f
6:00pm 5ft 7s 16 18 mph 1015.6mb 59f 58f
5:00pm 5ft 7s 13 16 mph 1015.7mb 59f 58f
4:00pm 4.5ft 8s 13 16 mph 1015.9mb 59f 58f
3:00pm 4.5ft 7s 11 13 mph 1015.9mb 59f 59f
2:00pm 4.5ft 8s 11 13 mph 1015.9mb 58f 58f
1:00pm 4.5ft 8s 9 11 mph 1015.9mb 58f 58f
12:00pm 4.5ft 8s 13 16 mph 1015.8mb 58f 58f
11:00am 4.5ft 8s 13 18 mph 1015.6mb 58f 57f
10:00am 5ft 7s 16 20 mph 1015.6mb 58f 57f
9:00am 4.5ft 8s 16 18 mph 1015.7mb 58f 57f
8:00am 4.5ft 7s 16 18 mph 1015.8mb 58f 58f
7:00am 4.5ft 7s 13 16 mph 1015.9mb 58f 56f
6:00am 4.5ft 9s 13 18 mph 1016mb 58f 56f
5:00am 4.5ft 8s 13 16 mph 1016.2mb 58f 56f
4:00am 4.5ft 6s 13 16 mph 1016.4mb 58f 56f
3:00am 4ft 6s 13 16 mph 1016.6mb 59f 57f
2:00am 3.5ft 6s 11 13 mph 1016.8mb 59f 57f
1:00am 3.5ft 7s 11 16 mph 1016.9mb 59f 57f
12:00am 3.5ft 6s 11 13 mph 1017mb 59f 58f
Thu 07/24 11:00pm 3.5ft 6s 13 18 mph 1017.1mb 59f 57f
10:00pm 3.5ft 6s 11 13 mph 1017.1mb 59f 57f
9:00pm 3.5ft 6s 11 13 mph 1017mb 59f 58f
8:00pm 3.5ft 6s 11 13 mph 1017.2mb 59f 58f
7:00pm 3.5ft 6s 9 13 mph 1017.3mb 59f 58f
6:00pm 3.5ft 5s 11 13 mph 1017.3mb 59f 56f
5:00pm 3ft 5s 11 13 mph 1017.5mb 59f 58f
4:00pm 3.5ft 5s 9 11 mph 1017.8mb 59f 57f
3:00pm 3.5ft 5s 11 13 mph 1017.7mb 59f 56f